sensor_id;sensor_type;location;lat;lon;timestamp;temperature;humidity
54082;DHT22;39986;50.770;0.266;2022-09-20T00:03:29;17.00;99.90
54082;DHT22;39986;50.770;0.266;2022-09-20T00:05:58;17.00;99.90
54082;DHT22;39986;50.770;0.266;2022-09-20T00:08:24;16.90;99.90
54082;DHT22;39986;50.770;0.266;2022-09-20T00:10:50;16.90;99.90
54082;DHT22;39986;50.770;0.266;2022-09-20T00:13:18;16.90;99.90
54082;DHT22;39986;50.770;0.266;2022-09-20T00:15:44;16.90;99.90
54082;DHT22;39986;50.770;0.266;2022-09-20T00:18:12;16.80;99.90
54082;DHT22;39986;50.770;0.266;2022-09-20T00:20:47;16.80;99.90
54082;DHT22;39986;50.770;0.266;2022-09-20T00:23:13;16.80;99.90
54082;DHT22;39986;50.770;0.266;2022-09-20T00:25:39;16.80;99.90
54082;DHT22;39986;50.770;0.266;2022-09-20T00:28:05;16.80;99.90
54082;DHT22;39986;50.770;0.266;2022-09-20T00:30:31;16.80;99.90
54082;DHT22;39986;50.770;0.266;2022-09-20T00:32:57;16.70;99.90
54082;DHT22;39986;50.770;0.266;2022-09-20T00:35:23;16.70;99.90
54082;DHT22;39986;50.770;0.266;2022-09-20T00:37:49;16.70;99.90
54082;DHT22;39986;50.770;0.266;2022-09-20T00:40:16;16.60;99.90
54082;DHT22;39986;50.770;0.266;2022-09-20T00:42:45;16.60;99.90
54082;DHT22;39986;50.770;0.266;2022-09-20T00:45:27;16.60;99.90
54082;DHT22;39986;50.770;0.266;2022-09-20T00:48:54;16.50;99.90
54082;DHT22;39986;50.770;0.266;2022-09-20T00:50:52;16.50;99.90
54082;DHT22;39986;50.770;0.266;2022-09-20T00:53:20;16.50;99.90
54082;DHT22;39986;50.770;0.266;2022-09-20T00:55:49;16.40;99.90
54082;DHT22;39986;50.770;0.266;2022-09-20T00:58:16;16.50;99.90
54082;DHT22;39986;50.770;0.266;2022-09-20T01:00:43;16.40;99.90
54082;DHT22;39986;50.770;0.266;2022-09-20T01:03:09;16.40;99.90
54082;DHT22;39986;50.770;0.266;2022-09-20T01:05:35;16.30;99.90
54082;DHT22;39986;50.770;0.266;2022-09-20T01:08:02;16.30;99.90
54082;DHT22;39986;50.770;0.266;2022-09-20T01:10:27;16.30;99.90
54082;DHT22;39986;50.770;0.266;2022-09-20T01:13:18;16.30;99.90
54082;DHT22;39986;50.770;0.266;2022-09-20T01:15:44;16.30;99.90
54082;DHT22;39986;50.770;0.266;2022-09-20T01:18:10;16.30;99.90
54082;DHT22;39986;50.770;0.266;2022-09-20T01:20:39;16.30;99.90
54082;DHT22;39986;50.770;0.266;2022-09-20T01:28:05;16.30;99.90
54082;DHT22;39986;50.770;0.266;2022-09-20T01:30:33;16.20;99.90
54082;DHT22;39986;50.770;0.266;2022-09-20T01:35:44;16.30;99.90
54082;DHT22;39986;50.770;0.266;2022-09-20T01:38:18;16.30;99.90
54082;DHT22;39986;50.770;0.266;2022-09-20T01:43:26;16.30;99.90
54082;DHT22;39986;50.770;0.266;2022-09-20T01:45:53;16.30;99.90
54082;DHT22;39986;50.770;0.266;2022-09-20T01:48:29;16.30;99.90
54082;DHT22;39986;50.770;0.266;2022-09-20T01:56:08;16.30;99.90
54082;DHT22;39986;50.770;0.266;2022-09-20T01:58:58;16.40;99.90
54082;DHT22;39986;50.770;0.266;2022-09-20T02:01:53;16.40;99.90
54082;DHT22;39986;50.770;0.266;2022-09-20T02:07:56;16.30;99.90
54082;DHT22;39986;50.770;0.266;2022-09-20T02:15:16;16.20;99.90
54082;DHT22;39986;50.770;0.266;2022-09-20T02:17:54;16.20;99.90
54082;DHT22;39986;50.770;0.266;2022-09-20T02:28:15;16.00;99.90
54082;DHT22;39986;50.770;0.266;2022-09-20T02:43:46;15.90;99.90
54082;DHT22;39986;50.770;0.266;2022-09-20T02:46:23;15.80;99.90
54082;DHT22;39986;50.770;0.266;2022-09-20T02:51:41;15.80;99.90
54082;DHT22;39986;50.770;0.266;2022-09-20T02:54:24;15.80;99.90
54082;DHT22;39986;50.770;0.266;2022-09-20T02:57:02;15.80;99.90
54082;DHT22;39986;50.770;0.266;2022-09-20T03:10:19;15.80;99.90
54082;DHT22;39986;50.770;0.266;2022-09-20T03:15:38;15.70;99.90
54082;DHT22;39986;50.770;0.266;2022-09-20T03:18:10;15.60;99.90
54082;DHT22;39986;50.770;0.266;2022-09-20T03:20:48;15.50;99.90
54082;DHT22;39986;50.770;0.266;2022-09-20T03:25:53;15.40;99.90
54082;DHT22;39986;50.770;0.266;2022-09-20T03:36:05;15.00;99.90
54082;DHT22;39986;50.770;0.266;2022-09-20T03:46:27;14.60;99.90
54082;DHT22;39986;50.770;0.266;2022-09-20T04:04:13;14.30;99.90
54082;DHT22;39986;50.770;0.266;2022-09-20T04:06:48;14.20;99.90
54082;DHT22;39986;50.770;0.266;2022-09-20T04:12:01;14.20;99.90
54082;DHT22;39986;50.770;0.266;2022-09-20T04:19:51;14.00;99.90
54082;DHT22;39986;50.770;0.266;2022-09-20T04:22:19;14.00;99.90
54082;DHT22;39986;50.770;0.266;2022-09-20T04:38:25;13.90;99.90
54082;DHT22;39986;50.770;0.266;2022-09-20T04:59:26;13.70;99.90
54082;DHT22;39986;50.770;0.266;2022-09-20T05:02:09;13.70;99.90
54082;DHT22;39986;50.770;0.266;2022-09-20T05:07:33;13.70;99.90
54082;DHT22;39986;50.770;0.266;2022-09-20T05:30:43;13.60;99.90
54082;DHT22;39986;50.770;0.266;2022-09-20T05:51:17;13.10;99.90
54082;DHT22;39986;50.770;0.266;2022-09-20T05:53:53;13.10;99.90
54082;DHT22;39986;50.770;0.266;2022-09-20T06:01:56;13.30;99.90
54082;DHT22;39986;50.770;0.266;2022-09-20T06:04:24;13.40;99.90
54082;DHT22;39986;50.770;0.266;2022-09-20T06:07:05;13.60;99.90
54082;DHT22;39986;50.770;0.266;2022-09-20T06:22:50;14.20;99.90
54082;DHT22;39986;50.770;0.266;2022-09-20T06:25:43;14.30;99.90
54082;DHT22;39986;50.770;0.266;2022-09-20T06:30:47;14.40;99.90
54082;DHT22;39986;50.770;0.266;2022-09-20T06:35:46;14.60;99.90
54082;DHT22;39986;50.770;0.266;2022-09-20T06:41:11;14.70;99.90
54082;DHT22;39986;50.770;0.266;2022-09-20T06:43:56;14.80;99.90
54082;DHT22;39986;50.770;0.266;2022-09-20T06:46:32;14.90;99.90
54082;DHT22;39986;50.770;0.266;2022-09-20T06:48:58;14.90;99.90
54082;DHT22;39986;50.770;0.266;2022-09-20T06:51:25;15.00;99.90
54082;DHT22;39986;50.770;0.266;2022-09-20T06:53:51;15.10;99.90
54082;DHT22;39986;50.770;0.266;2022-09-20T06:56:24;15.20;99.90
54082;DHT22;39986;50.770;0.266;2022-09-20T06:58:55;15.30;99.90
54082;DHT22;39986;50.770;0.266;2022-09-20T07:01:20;15.30;99.90
54082;DHT22;39986;50.770;0.266;2022-09-20T07:03:46;15.50;99.90
54082;DHT22;39986;50.770;0.266;2022-09-20T07:06:12;15.50;99.90
54082;DHT22;39986;50.770;0.266;2022-09-20T07:08:40;15.60;99.90
54082;DHT22;39986;50.770;0.266;2022-09-20T07:11:09;15.70;99.90
54082;DHT22;39986;50.770;0.266;2022-09-20T07:13:36;15.80;99.90
54082;DHT22;39986;50.770;0.266;2022-09-20T07:16:02;15.90;99.90
54082;DHT22;39986;50.770;0.266;2022-09-20T07:18:29;16.00;99.90
54082;DHT22;39986;50.770;0.266;2022-09-20T07:20:56;16.10;99.90
54082;DHT22;39986;50.770;0.266;2022-09-20T07:23:24;16.10;99.90
54082;DHT22;39986;50.770;0.266;2022-09-20T07:25:49;16.20;99.90
54082;DHT22;39986;50.770;0.266;2022-09-20T07:28:15;16.20;99.90
54082;DHT22;39986;50.770;0.266;2022-09-20T07:31:06;16.30;99.90
54082;DHT22;39986;50.770;0.266;2022-09-20T07:33:32;16.50;99.90
54082;DHT22;39986;50.770;0.266;2022-09-20T07:35:58;16.50;99.90
54082;DHT22;39986;50.770;0.266;2022-09-20T07:38:23;16.60;99.90
54082;DHT22;39986;50.770;0.266;2022-09-20T07:40:53;16.80;99.90
54082;DHT22;39986;50.770;0.266;2022-09-20T07:43:20;16.90;99.90
54082;DHT22;39986;50.770;0.266;2022-09-20T07:45:50;17.00;99.90
54082;DHT22;39986;50.770;0.266;2022-09-20T07:48:20;17.10;99.90
54082;DHT22;39986;50.770;0.266;2022-09-20T07:50:58;17.20;99.90
54082;DHT22;39986;50.770;0.266;2022-09-20T07:53:26;17.20;99.90
54082;DHT22;39986;50.770;0.266;2022-09-20T07:55:56;17.40;99.90
54082;DHT22;39986;50.770;0.266;2022-09-20T07:58:28;17.40;99.90
54082;DHT22;39986;50.770;0.266;2022-09-20T08:01:00;17.50;99.90
54082;DHT22;39986;50.770;0.266;2022-09-20T08:03:27;17.60;99.90
54082;DHT22;39986;50.770;0.266;2022-09-20T08:06:01;17.60;99.90
54082;DHT22;39986;50.770;0.266;2022-09-20T08:08:27;17.60;99.90
54082;DHT22;39986;50.770;0.266;2022-09-20T08:11:02;17.70;99.90
54082;DHT22;39986;50.770;0.266;2022-09-20T08:13:30;17.70;99.90
54082;DHT22;39986;50.770;0.266;2022-09-20T08:18:48;17.80;99.90
54082;DHT22;39986;50.770;0.266;2022-09-20T08:21:14;17.90;99.90
54082;DHT22;39986;50.770;0.266;2022-09-20T08:23:40;17.90;99.90
54082;DHT22;39986;50.770;0.266;2022-09-20T08:26:07;18.10;99.90
54082;DHT22;39986;50.770;0.266;2022-09-20T08:28:33;18.20;99.90
54082;DHT22;39986;50.770;0.266;2022-09-20T08:31:06;18.50;99.90
54082;DHT22;39986;50.770;0.266;2022-09-20T08:33:32;18.70;99.90
54082;DHT22;39986;50.770;0.266;2022-09-20T08:35:59;18.80;99.90
54082;DHT22;39986;50.770;0.266;2022-09-20T08:38:25;18.80;99.90
54082;DHT22;39986;50.770;0.266;2022-09-20T08:41:13;18.90;99.90
54082;DHT22;39986;50.770;0.266;2022-09-20T08:43:39;19.20;99.90
54082;DHT22;39986;50.770;0.266;2022-09-20T08:46:05;19.40;99.90
54082;DHT22;39986;50.770;0.266;2022-09-20T08:48:34;19.60;99.90
54082;DHT22;39986;50.770;0.266;2022-09-20T08:51:00;19.70;99.90
54082;DHT22;39986;50.770;0.266;2022-09-20T08:53:26;19.50;99.90
54082;DHT22;39986;50.770;0.266;2022-09-20T08:55:53;19.20;99.90
54082;DHT22;39986;50.770;0.266;2022-09-20T08:58:22;19.20;99.90
54082;DHT22;39986;50.770;0.266;2022-09-20T09:00:48;19.30;99.90
54082;DHT22;39986;50.770;0.266;2022-09-20T09:03:14;19.30;99.90
54082;DHT22;39986;50.770;0.266;2022-09-20T09:05:45;19.50;99.90
54082;DHT22;39986;50.770;0.266;2022-09-20T09:10:41;19.70;99.90
54082;DHT22;39986;50.770;0.266;2022-09-20T09:13:09;19.70;99.90
54082;DHT22;39986;50.770;0.266;2022-09-20T09:15:39;19.70;99.90
54082;DHT22;39986;50.770;0.266;2022-09-20T09:18:08;19.80;99.90
54082;DHT22;39986;50.770;0.266;2022-09-20T09:20:39;19.90;99.90
54082;DHT22;39986;50.770;0.266;2022-09-20T09:23:06;20.10;99.90
54082;DHT22;39986;50.770;0.266;2022-09-20T09:25:37;20.20;99.90
54082;DHT22;39986;50.770;0.266;2022-09-20T09:30:43;20.50;99.90
54082;DHT22;39986;50.770;0.266;2022-09-20T09:33:27;20.70;99.90
54082;DHT22;39986;50.770;0.266;2022-09-20T09:38:23;20.90;99.90
54082;DHT22;39986;50.770;0.266;2022-09-20T09:40:49;20.70;99.90
54082;DHT22;39986;50.770;0.266;2022-09-20T09:43:21;20.70;99.90
54082;DHT22;39986;50.770;0.266;2022-09-20T09:45:48;21.00;99.90
54082;DHT22;39986;50.770;0.266;2022-09-20T09:50:42;21.70;99.90
54082;DHT22;39986;50.770;0.266;2022-09-20T09:53:28;22.20;99.90
54082;DHT22;39986;50.770;0.266;2022-09-20T10:01:04;22.90;99.90
54082;DHT22;39986;50.770;0.266;2022-09-20T10:03:37;23.00;99.90
54082;DHT22;39986;50.770;0.266;2022-09-20T10:27:11;23.80;99.30
54082;DHT22;39986;50.770;0.266;2022-09-20T10:29:46;24.90;97.50
54082;DHT22;39986;50.770;0.266;2022-09-20T10:32:23;26.10;92.70
54082;DHT22;39986;50.770;0.266;2022-09-20T10:34:55;27.60;89.40
54082;DHT22;39986;50.770;0.266;2022-09-20T10:39:56;29.00;79.30
54082;DHT22;39986;50.770;0.266;2022-09-20T10:42:39;29.70;76.90
54082;DHT22;39986;50.770;0.266;2022-09-20T10:51:06;32.50;62.90
54082;DHT22;39986;50.770;0.266;2022-09-20T10:56:45;31.20;62.90
54082;DHT22;39986;50.770;0.266;2022-09-20T11:02:44;30.50;65.90
54082;DHT22;39986;50.770;0.266;2022-09-20T11:10:24;33.90;56.90
54082;DHT22;39986;50.770;0.266;2022-09-20T11:13:00;33.30;57.60
54082;DHT22;39986;50.770;0.266;2022-09-20T11:15:28;32.20;58.50
54082;DHT22;39986;50.770;0.266;2022-09-20T11:20:27;31.10;62.00
54082;DHT22;39986;50.770;0.266;2022-09-20T11:22:59;30.40;61.40
54082;DHT22;39986;50.770;0.266;2022-09-20T11:25:32;29.10;63.00
54082;DHT22;39986;50.770;0.266;2022-09-20T11:28:02;27.50;67.60
54082;DHT22;39986;50.770;0.266;2022-09-20T11:30:32;27.30;69.40
54082;DHT22;39986;50.770;0.266;2022-09-20T11:35:45;27.50;68.80
54082;DHT22;39986;50.770;0.266;2022-09-20T11:40:44;28.10;68.80
54082;DHT22;39986;50.770;0.266;2022-09-20T11:43:11;30.60;65.10
54082;DHT22;39986;50.770;0.266;2022-09-20T11:45:38;32.80;58.70
54082;DHT22;39986;50.770;0.266;2022-09-20T11:48:27;33.30;56.90
54082;DHT22;39986;50.770;0.266;2022-09-20T11:58:45;31.90;56.20
54082;DHT22;39986;50.770;0.266;2022-09-20T12:01:15;31.40;57.30
54082;DHT22;39986;50.770;0.266;2022-09-20T12:04:10;30.50;58.00
54082;DHT22;39986;50.770;0.266;2022-09-20T12:06:37;29.80;60.00
54082;DHT22;39986;50.770;0.266;2022-09-20T12:09:05;31.30;57.40
54082;DHT22;39986;50.770;0.266;2022-09-20T12:11:33;32.10;56.60
54082;DHT22;39986;50.770;0.266;2022-09-20T12:14:02;32.70;55.40
54082;DHT22;39986;50.770;0.266;2022-09-20T12:19:04;32.00;55.30
54082;DHT22;39986;50.770;0.266;2022-09-20T12:22:14;30.70;56.70
54082;DHT22;39986;50.770;0.266;2022-09-20T12:24:18;30.30;58.40
54082;DHT22;39986;50.770;0.266;2022-09-20T12:26:45;31.70;56.30
54082;DHT22;39986;50.770;0.266;2022-09-20T12:31:53;30.10;57.10
54082;DHT22;39986;50.770;0.266;2022-09-20T12:37:15;28.00;61.40
54082;DHT22;39986;50.770;0.266;2022-09-20T12:39:34;27.00;64.80
54082;DHT22;39986;50.770;0.266;2022-09-20T12:47:14;24.90;71.10
54082;DHT22;39986;50.770;0.266;2022-09-20T12:52:26;24.70;74.00
54082;DHT22;39986;50.770;0.266;2022-09-20T12:55:12;24.50;73.70
54082;DHT22;39986;50.770;0.266;2022-09-20T12:57:53;25.30;74.60
54082;DHT22;39986;50.770;0.266;2022-09-20T13:02:59;33.70;58.20
54082;DHT22;39986;50.770;0.266;2022-09-20T13:08:00;39.50;47.80
54082;DHT22;39986;50.770;0.266;2022-09-20T13:10:31;40.70;44.70
54082;DHT22;39986;50.770;0.266;2022-09-20T13:13:02;40.20;43.40
54082;DHT22;39986;50.770;0.266;2022-09-20T13:15:29;39.90;42.60
54082;DHT22;39986;50.770;0.266;2022-09-20T13:17:56;39.30;42.10
54082;DHT22;39986;50.770;0.266;2022-09-20T13:20:25;38.50;43.00
54082;DHT22;39986;50.770;0.266;2022-09-20T13:22:54;37.70;44.20
54082;DHT22;39986;50.770;0.266;2022-09-20T13:25:20;36.40;44.30
54082;DHT22;39986;50.770;0.266;2022-09-20T13:32:41;30.90;50.30
54082;DHT22;39986;50.770;0.266;2022-09-20T13:37:45;29.10;53.80
54082;DHT22;39986;50.770;0.266;2022-09-20T13:42:49;27.50;56.80
54082;DHT22;39986;50.770;0.266;2022-09-20T13:45:15;26.90;57.70
54082;DHT22;39986;50.770;0.266;2022-09-20T13:47:43;26.80;58.10
54082;DHT22;39986;50.770;0.266;2022-09-20T13:50:22;26.90;59.40
54082;DHT22;39986;50.770;0.266;2022-09-20T13:52:49;27.00;58.00
54082;DHT22;39986;50.770;0.266;2022-09-20T13:55:33;27.00;58.90
54082;DHT22;39986;50.770;0.266;2022-09-20T13:58:00;27.50;59.00
54082;DHT22;39986;50.770;0.266;2022-09-20T14:00:27;28.00;58.00
54082;DHT22;39986;50.770;0.266;2022-09-20T14:02:53;28.10;58.10
54082;DHT22;39986;50.770;0.266;2022-09-20T14:05:21;28.40;57.80
54082;DHT22;39986;50.770;0.266;2022-09-20T14:07:48;28.30;56.90
54082;DHT22;39986;50.770;0.266;2022-09-20T14:12:59;27.50;57.80
54082;DHT22;39986;50.770;0.266;2022-09-20T14:15:52;27.50;57.40
54082;DHT22;39986;50.770;0.266;2022-09-20T14:18:23;27.40;57.50
54082;DHT22;39986;50.770;0.266;2022-09-20T14:20:52;27.10;57.60
54082;DHT22;39986;50.770;0.266;2022-09-20T14:23:20;26.80;58.90
54082;DHT22;39986;50.770;0.266;2022-09-20T14:28:31;27.50;58.00
54082;DHT22;39986;50.770;0.266;2022-09-20T14:33:53;29.60;55.10
54082;DHT22;39986;50.770;0.266;2022-09-20T14:36:21;32.90;52.50
54082;DHT22;39986;50.770;0.266;2022-09-20T14:38:49;36.80;47.00
54082;DHT22;39986;50.770;0.266;2022-09-20T14:41:23;40.00;42.90
54082;DHT22;39986;50.770;0.266;2022-09-20T14:43:52;41.30;39.90
54082;DHT22;39986;50.770;0.266;2022-09-20T14:46:18;42.30;38.10
54082;DHT22;39986;50.770;0.266;2022-09-20T14:49:17;40.70;38.50
54082;DHT22;39986;50.770;0.266;2022-09-20T14:51:40;37.50;40.60
54082;DHT22;39986;50.770;0.266;2022-09-20T14:56:32;34.50;44.60
54082;DHT22;39986;50.770;0.266;2022-09-20T14:59:02;34.90;43.90
54082;DHT22;39986;50.770;0.266;2022-09-20T15:01:28;34.80;43.90
54082;DHT22;39986;50.770;0.266;2022-09-20T15:03:54;34.00;44.00
54082;DHT22;39986;50.770;0.266;2022-09-20T15:06:21;33.40;45.90
54082;DHT22;39986;50.770;0.266;2022-09-20T15:08:47;34.30;43.80
54082;DHT22;39986;50.770;0.266;2022-09-20T15:11:13;34.70;43.10
54082;DHT22;39986;50.770;0.266;2022-09-20T15:13:39;34.70;44.20
54082;DHT22;39986;50.770;0.266;2022-09-20T15:16:05;35.20;43.40
54082;DHT22;39986;50.770;0.266;2022-09-20T15:18:32;34.30;44.00
54082;DHT22;39986;50.770;0.266;2022-09-20T15:21:00;33.20;45.60
54082;DHT22;39986;50.770;0.266;2022-09-20T15:23:26;32.70;45.50
54082;DHT22;39986;50.770;0.266;2022-09-20T15:25:52;31.80;47.00
54082;DHT22;39986;50.770;0.266;2022-09-20T15:28:18;30.80;48.80
54082;DHT22;39986;50.770;0.266;2022-09-20T15:30:45;29.60;50.40
54082;DHT22;39986;50.770;0.266;2022-09-20T15:33:11;28.60;52.50
54082;DHT22;39986;50.770;0.266;2022-09-20T15:35:37;27.70;53.80
54082;DHT22;39986;50.770;0.266;2022-09-20T15:38:03;27.20;55.40
54082;DHT22;39986;50.770;0.266;2022-09-20T15:40:28;26.90;55.70
54082;DHT22;39986;50.770;0.266;2022-09-20T15:42:54;26.40;57.00
54082;DHT22;39986;50.770;0.266;2022-09-20T15:45:20;25.60;59.00
54082;DHT22;39986;50.770;0.266;2022-09-20T15:47:47;25.10;60.10
54082;DHT22;39986;50.770;0.266;2022-09-20T15:50:13;24.80;62.00
54082;DHT22;39986;50.770;0.266;2022-09-20T15:52:38;24.20;63.40
54082;DHT22;39986;50.770;0.266;2022-09-20T15:55:05;24.00;64.40
54082;DHT22;39986;50.770;0.266;2022-09-20T15:57:31;24.10;65.20
54082;DHT22;39986;50.770;0.266;2022-09-20T15:59:57;24.00;63.50
54082;DHT22;39986;50.770;0.266;2022-09-20T16:02:23;23.90;64.30
54082;DHT22;39986;50.770;0.266;2022-09-20T16:04:49;23.60;65.50
54082;DHT22;39986;50.770;0.266;2022-09-20T16:07:19;23.40;66.30
54082;DHT22;39986;50.770;0.266;2022-09-20T16:09:50;23.40;67.10
54082;DHT22;39986;50.770;0.266;2022-09-20T16:12:16;23.50;66.80
54082;DHT22;39986;50.770;0.266;2022-09-20T16:14:41;23.70;67.50
54082;DHT22;39986;50.770;0.266;2022-09-20T16:17:10;23.80;66.70
54082;DHT22;39986;50.770;0.266;2022-09-20T16:19:37;23.80;66.60
54082;DHT22;39986;50.770;0.266;2022-09-20T16:22:04;23.50;68.00
54082;DHT22;39986;50.770;0.266;2022-09-20T16:24:31;23.40;68.60
54082;DHT22;39986;50.770;0.266;2022-09-20T16:26:57;23.40;68.70
54082;DHT22;39986;50.770;0.266;2022-09-20T16:29:24;23.40;69.20
54082;DHT22;39986;50.770;0.266;2022-09-20T16:31:53;23.40;68.70
54082;DHT22;39986;50.770;0.266;2022-09-20T16:34:23;23.20;69.50
54082;DHT22;39986;50.770;0.266;2022-09-20T16:36:54;23.20;69.70
54082;DHT22;39986;50.770;0.266;2022-09-20T16:39:21;23.10;70.10
54082;DHT22;39986;50.770;0.266;2022-09-20T16:41:54;22.80;70.70
54082;DHT22;39986;50.770;0.266;2022-09-20T16:44:21;22.60;72.30
54082;DHT22;39986;50.770;0.266;2022-09-20T16:46:47;22.50;72.00
54082;DHT22;39986;50.770;0.266;2022-09-20T16:49:12;22.40;72.70
54082;DHT22;39986;50.770;0.266;2022-09-20T16:51:41;22.30;73.90
54082;DHT22;39986;50.770;0.266;2022-09-20T16:54:08;22.30;74.80
54082;DHT22;39986;50.770;0.266;2022-09-20T16:56:38;22.30;74.60
54082;DHT22;39986;50.770;0.266;2022-09-20T16:59:04;22.00;81.30
54082;DHT22;39986;50.770;0.266;2022-09-20T17:01:30;21.20;89.00
54082;DHT22;39986;50.770;0.266;2022-09-20T17:03:56;20.70;92.30
54082;DHT22;39986;50.770;0.266;2022-09-20T17:06:22;20.50;93.50
54082;DHT22;39986;50.770;0.266;2022-09-20T17:08:50;20.40;94.10
54082;DHT22;39986;50.770;0.266;2022-09-20T17:11:17;20.30;94.60
54082;DHT22;39986;50.770;0.266;2022-09-20T17:13:44;20.20;95.40
54082;DHT22;39986;50.770;0.266;2022-09-20T17:16:12;20.10;96.90
54082;DHT22;39986;50.770;0.266;2022-09-20T17:18:41;19.90;97.10
54082;DHT22;39986;50.770;0.266;2022-09-20T17:21:12;19.80;97.70
54082;DHT22;39986;50.770;0.266;2022-09-20T17:23:41;19.50;98.40
54082;DHT22;39986;50.770;0.266;2022-09-20T17:26:09;19.40;99.50
54082;DHT22;39986;50.770;0.266;2022-09-20T17:28:38;19.40;99.80
54082;DHT22;39986;50.770;0.266;2022-09-20T17:31:05;19.60;99.90
54082;DHT22;39986;50.770;0.266;2022-09-20T17:33:32;19.50;99.90
54082;DHT22;39986;50.770;0.266;2022-09-20T17:35:57;19.50;99.90
54082;DHT22;39986;50.770;0.266;2022-09-20T17:38:27;19.50;99.90
54082;DHT22;39986;50.770;0.266;2022-09-20T17:41:00;19.30;99.90
54082;DHT22;39986;50.770;0.266;2022-09-20T17:43:26;19.20;99.90
54082;DHT22;39986;50.770;0.266;2022-09-20T17:45:54;19.30;99.90
54082;DHT22;39986;50.770;0.266;2022-09-20T17:48:21;19.20;99.90
54082;DHT22;39986;50.770;0.266;2022-09-20T17:50:54;19.20;99.90
54082;DHT22;39986;50.770;0.266;2022-09-20T17:53:20;19.30;99.90
54082;DHT22;39986;50.770;0.266;2022-09-20T17:55:53;19.20;99.90
54082;DHT22;39986;50.770;0.266;2022-09-20T17:58:18;19.20;99.90
54082;DHT22;39986;50.770;0.266;2022-09-20T18:00:44;19.20;99.90
54082;DHT22;39986;50.770;0.266;2022-09-20T18:03:10;19.20;99.90
54082;DHT22;39986;50.770;0.266;2022-09-20T18:05:35;19.30;99.90
54082;DHT22;39986;50.770;0.266;2022-09-20T18:08:01;19.20;99.90
54082;DHT22;39986;50.770;0.266;2022-09-20T18:10:27;19.20;99.90
54082;DHT22;39986;50.770;0.266;2022-09-20T18:12:53;19.20;99.90
54082;DHT22;39986;50.770;0.266;2022-09-20T18:15:19;19.20;99.90
54082;DHT22;39986;50.770;0.266;2022-09-20T18:17:44;19.20;99.90
54082;DHT22;39986;50.770;0.266;2022-09-20T18:20:10;19.20;99.90
54082;DHT22;39986;50.770;0.266;2022-09-20T18:22:35;19.20;99.90
54082;DHT22;39986;50.770;0.266;2022-09-20T18:25:02;19.10;99.90
54082;DHT22;39986;50.770;0.266;2022-09-20T18:27:27;19.10;99.90
54082;DHT22;39986;50.770;0.266;2022-09-20T18:29:53;19.00;99.90
54082;DHT22;39986;50.770;0.266;2022-09-20T18:32:20;19.10;99.90
54082;DHT22;39986;50.770;0.266;2022-09-20T18:34:45;19.10;99.90
54082;DHT22;39986;50.770;0.266;2022-09-20T18:37:15;19.00;99.90
54082;DHT22;39986;50.770;0.266;2022-09-20T18:39:41;19.10;99.90
54082;DHT22;39986;50.770;0.266;2022-09-20T18:42:07;19.00;99.90
54082;DHT22;39986;50.770;0.266;2022-09-20T18:44:34;18.90;99.90
54082;DHT22;39986;50.770;0.266;2022-09-20T18:47:03;18.80;99.90
54082;DHT22;39986;50.770;0.266;2022-09-20T18:49:30;18.70;99.90
54082;DHT22;39986;50.770;0.266;2022-09-20T18:51:56;18.60;99.90
54082;DHT22;39986;50.770;0.266;2022-09-20T18:54:21;18.60;99.90
54082;DHT22;39986;50.770;0.266;2022-09-20T18:56:48;18.50;99.90
54082;DHT22;39986;50.770;0.266;2022-09-20T18:59:15;18.60;99.90
54082;DHT22;39986;50.770;0.266;2022-09-20T19:17:39;18.70;99.90
54082;DHT22;39986;50.770;0.266;2022-09-20T19:20:11;18.60;99.90
54082;DHT22;39986;50.770;0.266;2022-09-20T19:25:31;18.60;99.90
54082;DHT22;39986;50.770;0.266;2022-09-20T19:28:06;18.60;99.90
54082;DHT22;39986;50.770;0.266;2022-09-20T19:30:33;18.60;99.90
54082;DHT22;39986;50.770;0.266;2022-09-20T19:32:58;18.60;99.90
54082;DHT22;39986;50.770;0.266;2022-09-20T19:35:28;18.60;99.90
54082;DHT22;39986;50.770;0.266;2022-09-20T19:37:58;18.60;99.90
54082;DHT22;39986;50.770;0.266;2022-09-20T19:40:39;18.60;99.90
54082;DHT22;39986;50.770;0.266;2022-09-20T19:45:47;18.60;99.90
54082;DHT22;39986;50.770;0.266;2022-09-20T19:48:17;18.60;99.90
54082;DHT22;39986;50.770;0.266;2022-09-20T19:50:50;18.50;99.90
54082;DHT22;39986;50.770;0.266;2022-09-20T19:53:17;18.40;99.90
54082;DHT22;39986;50.770;0.266;2022-09-20T19:55:47;18.40;99.90
54082;DHT22;39986;50.770;0.266;2022-09-20T19:58:14;18.40;99.90
54082;DHT22;39986;50.770;0.266;2022-09-20T20:00:42;18.40;99.90
54082;DHT22;39986;50.770;0.266;2022-09-20T20:03:09;18.40;99.90
54082;DHT22;39986;50.770;0.266;2022-09-20T20:06:03;18.30;99.90
54082;DHT22;39986;50.770;0.266;2022-09-20T20:08:38;18.20;99.90
54082;DHT22;39986;50.770;0.266;2022-09-20T20:12:07;18.20;99.90
54082;DHT22;39986;50.770;0.266;2022-09-20T20:19:12;18.20;99.90
54082;DHT22;39986;50.770;0.266;2022-09-20T20:21:49;18.20;99.90
54082;DHT22;39986;50.770;0.266;2022-09-20T20:24:29;18.20;99.90
54082;DHT22;39986;50.770;0.266;2022-09-20T20:26:56;18.20;99.90
54082;DHT22;39986;50.770;0.266;2022-09-20T20:29:22;18.20;99.90
54082;DHT22;39986;50.770;0.266;2022-09-20T20:31:48;18.20;99.90
54082;DHT22;39986;50.770;0.266;2022-09-20T20:34:13;18.20;99.90
54082;DHT22;39986;50.770;0.266;2022-09-20T20:36:44;18.10;99.90
54082;DHT22;39986;50.770;0.266;2022-09-20T20:39:10;18.20;99.90
54082;DHT22;39986;50.770;0.266;2022-09-20T20:41:35;18.10;99.90
54082;DHT22;39986;50.770;0.266;2022-09-20T20:44:01;18.00;99.90
54082;DHT22;39986;50.770;0.266;2022-09-20T20:46:30;18.10;99.90
54082;DHT22;39986;50.770;0.266;2022-09-20T20:48:57;18.10;99.90
54082;DHT22;39986;50.770;0.266;2022-09-20T20:51:23;18.00;99.90
54082;DHT22;39986;50.770;0.266;2022-09-20T20:53:50;18.00;99.90
54082;DHT22;39986;50.770;0.266;2022-09-20T20:56:16;17.90;99.90
54082;DHT22;39986;50.770;0.266;2022-09-20T20:58:43;17.90;99.90
54082;DHT22;39986;50.770;0.266;2022-09-20T21:03:34;17.70;99.90
54082;DHT22;39986;50.770;0.266;2022-09-20T21:06:00;17.70;99.90
54082;DHT22;39986;50.770;0.266;2022-09-20T21:08:30;17.60;99.90
54082;DHT22;39986;50.770;0.266;2022-09-20T21:10:59;17.60;99.90
54082;DHT22;39986;50.770;0.266;2022-09-20T21:13:26;17.40;99.90
54082;DHT22;39986;50.770;0.266;2022-09-20T21:15:52;17.30;99.90
54082;DHT22;39986;50.770;0.266;2022-09-20T21:18:19;17.30;99.90
54082;DHT22;39986;50.770;0.266;2022-09-20T21:20:45;17.10;99.90
54082;DHT22;39986;50.770;0.266;2022-09-20T21:23:10;17.20;99.90
54082;DHT22;39986;50.770;0.266;2022-09-20T21:25:36;17.20;99.90
54082;DHT22;39986;50.770;0.266;2022-09-20T21:28:01;17.10;99.90
54082;DHT22;39986;50.770;0.266;2022-09-20T21:30:27;17.00;99.90
54082;DHT22;39986;50.770;0.266;2022-09-20T21:32:53;16.90;99.90
54082;DHT22;39986;50.770;0.266;2022-09-20T21:35:21;16.80;99.90